Marco Polo — C6JZ7 — position and weather

sailwx.info

Track history (hours):
 
Tides and Currents Weather Stations Pressure Air Temp Water Temp Dewpoint Dewpoint Depression Visibility Wind Speed Wind Dir Waves Ship Positions

Marco Polo

Operator: Orient Lines

Last reported at 2014-Aug-29 17:33 UTC. Time now 2014-Aug-29 18:22 UTC.
Position N 59°39' E 023°25'.

Type: Passenger vessel. MMSI: 308693000.

Date/timePositionNaut miles runAvg speedWind from/ knotsBaromVisibWave heightAir tempDewpointWater temp
2014-Aug-29 17:33N 59°39' E 023°25'1515.1
2014-Aug-29 16:33N 59°43' E 023°54'4113.6
2014-Aug-29 13:33N 60°08' E 024°59'2 0.2
2014-Aug-29 04:14N 60°10' E 024°59'7 9.8
2014-Aug-29 03:33N 60°03' E 024°57'5212.9
2014-Aug-28 23:33N 60°01' E 026°41'10412.8
2014-Aug-28 15:28N 59°57' E 030°08'105 2.3
2014-Aug-26 18:33N 59°59' E 026°39'6215.4
2014-Aug-26 14:30N 59°38' E 024°42'1111.7
2014-Aug-26 13:33N 59°27' E 024°46'0 0.2
2014-Aug-26 12:31N 59°27' E 024°46'0 0.0
2014-Aug-26 11:31N 59°27' E 024°46'0 0.0
2014-Aug-26 10:33N 59°27' E 024°46'0 0.0
2014-Aug-26 09:33N 59°27' E 024°46'0 0.0
2014-Aug-26 08:33N 59°27' E 024°46'0 0.0
2014-Aug-26 07:26N 59°27' E 024°46'0 0.0
2014-Aug-26 06:32N 59°27' E 024°46'1 1.1
2014-Aug-26 05:33N 59°28' E 024°45'41713.4
2014-Aug-24 22:25N 55°16' E 014°30'1214.1
2014-Aug-24 21:32N 55°06' E 014°16'2713.9
2014-Aug-24 19:33N 54°42' E 013°54'1413.8
2014-Aug-24 18:34N 54°30' E 013°42'4 3.9
2014-Aug-24 17:33N 54°29' E 013°35'0 0.0
2014-Aug-24 16:32N 54°29' E 013°35'0 0.0
2014-Aug-24 15:14N 54°29' E 013°35'0 0.0
2014-Aug-24 14:31N 54°29' E 013°35'0 0.0
2014-Aug-24 13:32N 54°29' E 013°35'0 0.0
2014-Aug-24 12:31N 54°29' E 013°35'1 1.2
2014-Aug-24 11:34N 54°28' E 013°36'5 5.4
2014-Aug-24 10:34N 54°30' E 013°45'1514.7
2014-Aug-24 09:33N 54°44' E 013°35'1615.7
2014-Aug-24 08:33N 54°46' E 013°07'1914.9
2014-Aug-24 07:18N 54°42' E 012°36'1114.8
2014-Aug-24 06:33N 54°35' E 012°20'1413.8
2014-Aug-24 05:34N 54°25' E 012°05'163 6.2
2014-Aug-23 03:18N 57°07' E 011°38'1316.9
2014-Aug-23 02:31N 57°19' E 011°30'1616.4
2014-Aug-23 01:33N 57°32' E 011°14'1816.7
2014-Aug-23 00:29N 57°45' E 010°50'1515.8
2014-Aug-22 23:33N 57°47' E 010°23'23716.5
2014-Aug-22 09:11N 54°50' E 005°37'1116.5
2014-Aug-22 08:31N 54°41' E 005°27'1616.5
2014-Aug-22 07:33N 54°27' E 005°13'1716.6
2014-Aug-22 06:33N 54°13' E 004°58'17516.7
2014-Aug-21 20:05N 51°52' E 002°06'916.0
2014-Aug-21 19:33N 51°49' E 001°54'1313.3
2014-Aug-21 18:34N 51°48' E 001°32'1414.4
2014-Aug-21 17:34N 51°36' E 001°18'1515.5
2014-Aug-21 16:33N 51°29' E 000°57'1514.9
2014-Aug-21 15:33N 51°30' E 000°33'8 7.7
2014-Aug-21 14:33N 51°27' E 000°22'0 0.0
2014-Aug-21 13:33N 51°27' E 000°22'0 0.0
2014-Aug-21 12:33N 51°27' E 000°22'0 0.0
2014-Aug-21 11:34N 51°27' E 000°22'0 0.0
2014-Aug-21 10:33N 51°27' E 000°22'0 0.0
2014-Aug-21 09:34N 51°27' E 000°22'0 0.0
2014-Aug-21 08:32N 51°27' E 000°22'0 0.1
2014-Aug-21 07:34N 51°27' E 000°22'0 0.0
2014-Aug-21 06:33N 51°27' E 000°22'6 5.9
2014-Aug-21 05:34N 51°30' E 000°30'1514.7
2014-Aug-21 04:33N 51°29' E 000°54'1514.3
2014-Aug-21 03:29N 51°35' E 001°16'1415.2
2014-Aug-21 02:33N 51°46' E 001°31'1111.5
2014-Aug-21 01:34N 51°55' E 001°44'1413.6
2014-Aug-21 00:34N 52°07' E 001°51'1614.7
2014-Aug-20 23:28N 52°22' E 002°00'1414.9
2014-Aug-20 22:33N 52°35' E 002°08'2411.8
2014-Aug-20 20:30N 52°58' E 001°53'1314.3
2014-Aug-20 19:34N 53°05' E 001°34'7714.5
2014-Aug-20 14:15N 54°07' E 000°17'1014.7
2014-Aug-20 13:33N 54°16' E 000°12'1514.6
2014-Aug-20 12:33N 54°30' E 000°05'1514.7
2014-Aug-20 11:31N 54°45' W 000°03'16313.7
2014-Aug-19 23:33N 57°21' W 001°31'1313.5
2014-Aug-19 22:34N 57°33' W 001°39'1413.9
2014-Aug-19 21:33N 57°47' W 001°47'  
Track history (hours):
 
Tides and Currents Weather Stations Pressure Air Temp Water Temp Dewpoint Dewpoint Depression Visibility Wind Speed Wind Dir Waves Ship Positions

Marco Polo

Operator: Orient Lines

Last reported at 2014-Aug-29 17:33 UTC. Time now 2014-Aug-29 18:22 UTC.
Position N 59°39' E 023°25'.

Type: Passenger vessel. MMSI: 308693000.

Date/timePositionNaut miles runAvg speedWind from/ knotsBaromVisibWave heightAir tempDewpointWater temp
2014-Aug-29 17:33N 59°39' E 023°25'1515.1
2014-Aug-29 16:33N 59°43' E 023°54'4113.6
2014-Aug-29 13:33N 60°08' E 024°59'2 0.2
2014-Aug-29 04:14N 60°10' E 024°59'7 9.8
2014-Aug-29 03:33N 60°03' E 024°57'5212.9
2014-Aug-28 23:33N 60°01' E 026°41'10412.8
2014-Aug-28 15:28N 59°57' E 030°08'105 2.3
2014-Aug-26 18:33N 59°59' E 026°39'6215.4
2014-Aug-26 14:30N 59°38' E 024°42'1111.7
2014-Aug-26 13:33N 59°27' E 024°46'0 0.2
2014-Aug-26 12:31N 59°27' E 024°46'0 0.0
2014-Aug-26 11:31N 59°27' E 024°46'0 0.0
2014-Aug-26 10:33N 59°27' E 024°46'0 0.0
2014-Aug-26 09:33N 59°27' E 024°46'0 0.0
2014-Aug-26 08:33N 59°27' E 024°46'0 0.0
2014-Aug-26 07:26N 59°27' E 024°46'0 0.0
2014-Aug-26 06:32N 59°27' E 024°46'1 1.1
2014-Aug-26 05:33N 59°28' E 024°45'41713.4
2014-Aug-24 22:25N 55°16' E 014°30'1214.1
2014-Aug-24 21:32N 55°06' E 014°16'2713.9
2014-Aug-24 19:33N 54°42' E 013°54'1413.8
2014-Aug-24 18:34N 54°30' E 013°42'4 3.9
2014-Aug-24 17:33N 54°29' E 013°35'0 0.0
2014-Aug-24 16:32N 54°29' E 013°35'0 0.0
2014-Aug-24 15:14N 54°29' E 013°35'0 0.0
2014-Aug-24 14:31N 54°29' E 013°35'0 0.0
2014-Aug-24 13:32N 54°29' E 013°35'0 0.0
2014-Aug-24 12:31N 54°29' E 013°35'1 1.2
2014-Aug-24 11:34N 54°28' E 013°36'5 5.4
2014-Aug-24 10:34N 54°30' E 013°45'1514.7
2014-Aug-24 09:33N 54°44' E 013°35'1615.7
2014-Aug-24 08:33N 54°46' E 013°07'1914.9
2014-Aug-24 07:18N 54°42' E 012°36'1114.8
2014-Aug-24 06:33N 54°35' E 012°20'1413.8
2014-Aug-24 05:34N 54°25' E 012°05'163 6.2
2014-Aug-23 03:18N 57°07' E 011°38'1316.9
2014-Aug-23 02:31N 57°19' E 011°30'1616.4
2014-Aug-23 01:33N 57°32' E 011°14'1816.7
2014-Aug-23 00:29N 57°45' E 010°50'1515.8
2014-Aug-22 23:33N 57°47' E 010°23'23716.5
2014-Aug-22 09:11N 54°50' E 005°37'1116.5
2014-Aug-22 08:31N 54°41' E 005°27'1616.5
2014-Aug-22 07:33N 54°27' E 005°13'1716.6
2014-Aug-22 06:33N 54°13' E 004°58'17516.7
2014-Aug-21 20:05N 51°52' E 002°06'916.0
2014-Aug-21 19:33N 51°49' E 001°54'1313.3
2014-Aug-21 18:34N 51°48' E 001°32'1414.4
2014-Aug-21 17:34N 51°36' E 001°18'1515.5
2014-Aug-21 16:33N 51°29' E 000°57'1514.9
2014-Aug-21 15:33N 51°30' E 000°33'8 7.7
2014-Aug-21 14:33N 51°27' E 000°22'0 0.0
2014-Aug-21 13:33N 51°27' E 000°22'0 0.0
2014-Aug-21 12:33N 51°27' E 000°22'0 0.0
2014-Aug-21 11:34N 51°27' E 000°22'0 0.0
2014-Aug-21 10:33N 51°27' E 000°22'0 0.0
2014-Aug-21 09:34N 51°27' E 000°22'0 0.0
2014-Aug-21 08:32N 51°27' E 000°22'0 0.1
2014-Aug-21 07:34N 51°27' E 000°22'0 0.0
2014-Aug-21 06:33N 51°27' E 000°22'6 5.9
2014-Aug-21 05:34N 51°30' E 000°30'1514.7
2014-Aug-21 04:33N 51°29' E 000°54'1514.3
2014-Aug-21 03:29N 51°35' E 001°16'1415.2
2014-Aug-21 02:33N 51°46' E 001°31'1111.5
2014-Aug-21 01:34N 51°55' E 001°44'1413.6
2014-Aug-21 00:34N 52°07' E 001°51'1614.7
2014-Aug-20 23:28N 52°22' E 002°00'1414.9
2014-Aug-20 22:33N 52°35' E 002°08'2411.8
2014-Aug-20 20:30N 52°58' E 001°53'1314.3
2014-Aug-20 19:34N 53°05' E 001°34'7714.5
2014-Aug-20 14:15N 54°07' E 000°17'1014.7
2014-Aug-20 13:33N 54°16' E 000°12'1514.6
2014-Aug-20 12:33N 54°30' E 000°05'1514.7
2014-Aug-20 11:31N 54°45' W 000°03'16313.7
2014-Aug-19 23:33N 57°21' W 001°31'1313.5
2014-Aug-19 22:34N 57°33' W 001°39'1413.9
2014-Aug-19 21:33N 57°47' W 001°47'  

Dump ship's entire track history